Time;durP1;ratioP1;P1;durP2;ratioP2;P2;SDS_P1;SDS_P2;PMS_P1;PMS_P2;Temp;Humidity;BMP_temperature;BMP_pressure;BME280_temperature;BME280_humidity;BME280_pressure;Samples;Min_cycle;Max_cycle;Signal;HPM_P1;HPM_P2
2023/06/29 00:01:25;;;;;;;8.40;5.27;;;;;;;-141.97;84.41;47401.84;5034276;28;20215;-90
2023/06/29 00:03:50;;;;;;;7.33;5.60;;;;;;;-141.97;84.09;47686.31;5016993;28;20209;-90
2023/06/29 00:06:17;;;;;;;6.43;5.40;;;;;;;-141.97;84.41;47655.53;5033196;28;20230;-90
2023/06/29 00:08:42;;;;;;;6.80;4.53;;;;;;;-141.97;83.75;47580.59;5033710;28;20158;-91
2023/06/29 00:11:08;;;;;;;6.90;5.57;;;;;;;-141.97;84.61;47657.47;5029410;28;20182;-90
2023/06/29 00:13:34;;;;;;;7.03;5.20;;;;;;;-141.97;83.92;47442.19;5012457;28;20181;-90
2023/06/29 00:16:00;;;;;;;11.20;5.37;;;;;;;-141.97;84.31;47620.94;5013679;28;20275;-90
2023/06/29 00:18:30;;;;;;;8.47;5.80;;;;;;;-141.97;84.72;47576.75;5013695;28;20170;-91
2023/06/29 00:20:56;;;;;;;7.00;5.60;;;;;;;-141.97;84.70;47730.50;5014196;28;20229;-91
2023/06/29 00:23:21;;;;;;;6.53;5.30;;;;;;;-141.97;84.23;47365.31;5014775;28;20177;-91
2023/06/29 00:25:47;;;;;;;7.23;5.23;;;;;;;-141.97;83.92;47678.63;5012475;28;20179;-91
2023/06/29 00:28:15;;;;;;;7.43;4.93;;;;;;;-141.97;84.92;47380.69;5024790;28;20248;-89
2023/06/29 00:30:40;;;;;;;7.30;5.17;;;;;;;-141.97;85.69;47307.66;5034312;28;20258;-89
2023/06/29 00:33:06;;;;;;;7.47;5.20;;;;;;;-141.97;86.00;47709.38;5034181;28;20193;-89
2023/06/29 00:35:32;;;;;;;8.10;5.17;;;;;;;-141.97;84.62;47565.22;5034035;28;20685;-90
2023/06/29 00:37:57;;;;;;;6.80;5.10;;;;;;;-141.97;84.65;47701.69;5048515;28;20174;-90
2023/06/29 00:40:23;;;;;;;6.50;4.80;;;;;;;-141.97;83.72;47538.28;5032268;28;20278;-90
2023/06/29 00:42:49;;;;;;;7.50;5.17;;;;;;;-141.97;86.00;47638.25;5033376;28;20178;-90
2023/06/29 00:45:16;;;;;;;6.37;4.77;;;;;;;-141.97;86.84;47367.25;5037307;28;20181;-89
2023/06/29 00:47:42;;;;;;;9.37;5.77;;;;;;;-141.97;88.37;47718.97;5032663;28;20189;-90
2023/06/29 00:50:08;;;;;;;8.63;6.00;;;;;;;-141.97;88.80;47499.84;5034835;28;20177;-91
2023/06/29 00:52:34;;;;;;;10.07;6.20;;;;;;;-141.97;89.06;47720.91;5032685;28;20237;-91
2023/06/29 00:55:00;;;;;;;7.80;5.50;;;;;;;-141.97;89.16;47699.75;5033708;28;20209;-90
2023/06/29 00:57:25;;;;;;;7.10;5.47;;;;;;;-141.97;89.22;47703.59;5033505;28;20181;-90
2023/06/29 00:59:51;;;;;;;9.83;6.30;;;;;;;-141.97;89.55;47634.41;5032620;28;20246;-90
2023/06/29 01:02:17;;;;;;;7.57;5.47;;;;;;;-141.97;90.37;47403.75;5033584;28;20627;-90
2023/06/29 01:04:45;;;;;;;10.00;6.27;;;;;;;-141.97;91.66;47505.63;5034828;28;20830;-90
2023/06/29 01:07:30;;;;;;;8.67;5.63;;;;;;;-141.97;91.46;47584.44;5035495;28;20205;-91
2023/06/29 01:09:58;;;;;;;7.23;5.33;;;;;;;-141.97;91.47;47619.03;5035668;28;20255;-91
2023/06/29 01:12:25;;;;;;;7.90;5.30;;;;;;;-141.97;90.97;47682.47;5035772;28;20178;-91
2023/06/29 01:14:51;;;;;;;7.80;5.40;;;;;;;-141.97;91.06;47684.38;5035823;28;20203;-90
2023/06/29 01:17:20;;;;;;;7.17;5.40;;;;;;;-141.97;91.17;47444.13;5036424;28;20166;-91
2023/06/29 01:19:49;;;;;;;8.30;5.33;;;;;;;-141.97;90.97;47736.28;5052891;28;20543;-91
2023/06/29 01:22:27;;;;;;;6.27;4.60;;;;;;;-141.97;90.07;47430.66;5035684;28;20192;-90
2023/06/29 01:24:53;;;;;;;7.50;5.33;;;;;;;-141.97;90.54;47588.28;5036233;28;20188;-91
2023/06/29 01:27:21;;;;;;;7.80;5.37;;;;;;;-141.97;90.62;47722.81;5035017;28;20194;-90
2023/06/29 01:29:46;;;;;;;8.47;5.23;;;;;;;-141.97;90.69;47336.50;5019394;28;20196;-90
2023/06/29 01:32:12;;;;;;;8.70;4.77;;;;;;;-141.97;91.55;47626.72;5036854;28;20174;-89
2023/06/29 01:34:38;;;;;;;7.60;5.53;;;;;;;-141.97;91.97;47365.31;5035597;28;20190;-89
2023/06/29 01:37:16;;;;;;;8.20;5.40;;;;;;;-141.97;91.81;47582.50;5035314;28;20552;-88
2023/06/29 01:39:51;;;;;;;8.00;5.30;;;;;;;-141.97;91.15;47574.81;5058691;28;20178;-89
2023/06/29 01:42:18;;;;;;;7.30;5.57;;;;;;;-141.97;90.49;47595.97;5058673;28;20150;-87
2023/06/29 01:44:44;;;;;;;9.60;5.03;;;;;;;-141.97;90.65;47455.66;5041488;28;20186;-89
2023/06/29 01:47:10;;;;;;;7.20;5.40;;;;;;;-141.97;90.16;47346.09;5037087;28;20225;-91
2023/06/29 01:49:36;;;;;;;7.50;4.90;;;;;;;-141.97;90.68;47594.03;5035426;28;20231;-91
2023/06/29 01:52:05;;;;;;;7.30;5.07;;;;;;;-141.97;91.49;47474.88;5036397;28;20313;-89
2023/06/29 01:54:31;;;;;;;6.57;5.00;;;;;;;-141.97;90.84;47465.25;5035264;28;20671;-90
2023/06/29 01:56:56;;;;;;;8.33;4.93;;;;;;;-141.97;89.81;47457.56;5034756;28;20166;-89
2023/06/29 01:59:22;;;;;;;6.97;5.23;;;;;;;-141.97;89.38;47469.09;5034942;28;20178;-90
2023/06/29 02:01:47;;;;;;;8.00;5.27;;;;;;;-141.97;88.13;47628.63;5034637;28;20173;-89
2023/06/29 02:04:13;;;;;;;8.27;5.07;;;;;;;-141.97;88.86;47424.91;5035915;28;20170;-89
2023/06/29 02:06:38;;;;;;;8.17;5.70;;;;;;;-141.97;88.28;47661.31;5035630;28;20178;-90
2023/06/29 02:09:03;;;;;;;7.63;5.43;;;;;;;-141.97;89.07;47326.88;5034627;28;20182;-89
2023/06/29 02:11:29;;;;;;;7.83;5.30;;;;;;;-141.97;88.78;47409.53;5034589;28;20214;-90
2023/06/29 02:13:54;;;;;;;9.33;5.10;;;;;;;-141.97;88.55;47555.59;5035692;28;20193;-90
2023/06/29 02:16:20;;;;;;;7.93;4.80;;;;;;;-141.97;89.89;47703.59;5034609;28;20635;-90
2023/06/29 02:18:45;;;;;;;8.33;5.33;;;;;;;-141.97;90.57;47365.31;5034773;28;20686;-90
2023/06/29 02:21:11;;;;;;;6.70;4.97;;;;;;;-141.97;90.70;47476.78;5017153;28;20251;-90
2023/06/29 02:23:36;;;;;;;8.17;5.13;;;;;;;-141.97;91.42;47651.69;5037838;28;20170;-90
2023/06/29 02:26:01;;;;;;;8.63;5.13;;;;;;;-141.97;91.46;47346.09;5035415;28;20260;-90
2023/06/29 02:28:27;;;;;;;8.67;5.50;;;;;;;-141.97;91.96;47657.47;5035294;28;20180;-90
2023/06/29 02:30:52;;;;;;;7.30;5.40;;;;;;;-141.97;91.69;47669.00;5020734;28;20258;-90
2023/06/29 02:33:17;;;;;;;7.07;5.30;;;;;;;-141.97;90.66;47463.34;5015515;28;20236;-89
2023/06/29 02:35:43;;;;;;;7.87;5.17;;;;;;;-141.97;90.30;47761.25;5015613;28;20796;-90
2023/06/29 02:38:08;;;;;;;9.50;5.13;;;;;;;-141.97;88.91;47684.38;5015283;28;20167;-91
2023/06/29 02:40:34;;;;;;;6.77;5.50;;;;;;;-141.97;88.45;47715.13;5015564;28;20159;-91
2023/06/29 02:42:59;;;;;;;7.13;5.17;;;;;;;-141.97;87.39;47461.41;5017931;28;20178;-89
2023/06/29 02:45:25;;;;;;;7.40;5.50;;;;;;;-141.97;87.03;47615.19;5020609;28;20620;-90
2023/06/29 02:47:50;;;;;;;7.90;5.17;;;;;;;-141.97;86.54;47765.09;5020155;28;20254;-89
2023/06/29 02:50:15;;;;;;;7.83;5.50;;;;;;;-141.97;86.72;47732.44;5014520;28;20267;-90
2023/06/29 02:52:41;;;;;;;7.70;5.27;;;;;;;-141.97;86.80;47807.41;5015349;28;20268;-91
2023/06/29 02:55:07;;;;;;;5.73;4.60;;;;;;;-141.97;85.79;47738.19;5014876;28;20202;-90
2023/06/29 02:57:32;;;;;;;7.30;5.07;;;;;;;-141.97;85.41;47690.16;5014637;28;20178;-89
2023/06/29 02:59:57;;;;;;;7.37;5.33;;;;;;;-141.97;84.72;47670.91;5014019;28;20159;-91
2023/06/29 03:02:23;;;;;;;7.13;4.70;;;;;;;-141.97;84.19;47471.03;5015280;28;20201;-91
2023/06/29 03:04:48;;;;;;;8.10;4.07;;;;;;;-141.97;83.72;47653.63;5014438;28;20194;-91
2023/06/29 03:07:13;;;;;;;6.47;4.50;;;;;;;-141.97;82.88;47442.19;4997107;28;20174;-91
2023/06/29 03:09:39;;;;;;;8.20;4.80;;;;;;;-141.97;82.58;47434.50;5013828;28;20258;-90
2023/06/29 03:12:05;;;;;;;5.53;4.53;;;;;;;-141.97;81.66;47576.75;5014305;28;20171;-90
2023/06/29 03:14:30;;;;;;;6.07;4.40;;;;;;;-141.97;81.61;47607.50;5015942;28;20586;-90
2023/06/29 03:16:56;;;;;;;6.60;4.60;;;;;;;-141.97;81.60;47751.66;5015670;28;20171;-89
2023/06/29 03:19:21;;;;;;;6.10;4.60;;;;;;;-141.97;82.08;47742.03;5016015;28;20171;-89
2023/06/29 03:21:47;;;;;;;10.50;5.17;;;;;;;-141.97;81.40;47688.22;5018201;28;20206;-90
2023/06/29 03:24:12;;;;;;;7.60;4.70;;;;;;;-141.97;81.46;47490.25;5017669;28;20187;-90
2023/06/29 03:26:37;;;;;;;5.93;4.70;;;;;;;-141.97;81.23;47738.19;5014487;28;20175;-91
2023/06/29 03:29:03;;;;;;;7.03;4.60;;;;;;;-141.97;80.99;47751.66;5014526;28;20365;-91
2023/06/29 03:31:28;;;;;;;6.33;4.67;;;;;;;-141.97;80.68;47490.25;5015757;28;20167;-89
2023/06/29 03:33:57;;;;;;;6.80;4.90;;;;;;;-141.97;80.50;47628.63;4995993;28;20170;-90
2023/06/29 03:36:23;;;;;;;7.13;4.50;;;;;;;-141.97;79.77;47440.28;5013497;28;20206;-89
2023/06/29 03:38:48;;;;;;;5.90;4.57;;;;;;;-141.97;80.13;47474.88;5012976;28;20170;-90
2023/06/29 03:41:14;;;;;;;6.80;4.70;;;;;;;-141.97;79.06;47547.91;5017226;28;20171;-90
2023/06/29 03:43:39;;;;;;;6.87;4.70;;;;;;;-141.97;78.42;47442.19;5017139;28;20178;-90
2023/06/29 03:46:05;;;;;;;7.30;4.63;;;;;;;-141.97;77.79;47569.06;4997392;28;20654;-90
2023/06/29 03:48:30;;;;;;;7.93;4.40;;;;;;;-141.97;77.18;47692.06;5014208;28;20177;-91
2023/06/29 03:50:57;;;;;;;7.03;4.80;;;;;;;-141.97;77.29;47438.34;5014285;28;20282;-89
2023/06/29 03:53:22;;;;;;;8.10;4.60;;;;;;;-141.97;76.43;47634.41;5013755;28;20171;-90
2023/06/29 03:55:48;;;;;;;6.80;4.10;;;;;;;-141.97;75.73;47599.81;5013214;28;20289;-89
2023/06/29 03:58:14;;;;;;;8.10;4.60;;;;;;;-141.97;76.37;47542.16;4996190;28;20201;-91
2023/06/29 04:00:40;;;;;;;7.03;4.30;;;;;;;-141.97;76.14;47469.09;5014186;28;20171;-91
2023/06/29 04:03:05;;;;;;;5.57;4.50;;;;;;;-141.97;76.25;47722.81;5028390;28;20194;-89
2023/06/29 04:05:31;;;;;;;6.13;4.27;;;;;;;-141.97;76.25;47476.78;5036277;28;20178;-91
2023/06/29 04:07:59;;;;;;;6.03;4.47;;;;;;;-141.97;76.20;47738.19;5030452;28;20184;-91
2023/06/29 04:10:24;;;;;;;7.03;5.10;;;;;;;-141.97;75.94;47549.84;5016718;28;20205;-90
2023/06/29 04:12:50;;;;;;;5.97;4.13;;;;;;;-141.97;75.85;47728.59;5014409;28;20175;-91
2023/06/29 04:15:15;;;;;;;5.73;4.63;;;;;;;-141.97;75.99;47474.88;5015095;28;20186;-90
2023/06/29 04:17:41;;;;;;;6.43;4.70;;;;;;;-141.97;75.27;47684.38;5012873;28;20202;-90
2023/06/29 04:20:08;;;;;;;6.47;4.23;;;;;;;-141.97;75.25;47730.50;5016366;28;20177;-89
2023/06/29 04:22:34;;;;;;;9.67;4.27;;;;;;;-141.97;74.00;47732.44;5025309;28;20201;-90
2023/06/29 04:24:59;;;;;;;5.63;4.20;;;;;;;-141.97;73.94;47563.28;5015998;28;20206;-90
2023/06/29 04:27:24;;;;;;;5.77;4.07;;;;;;;-141.97;73.34;47772.78;5015226;28;20179;-91
2023/06/29 04:29:50;;;;;;;6.93;4.67;;;;;;;-141.97;72.89;47503.69;5013538;28;20170;-91
2023/06/29 04:32:15;;;;;;;6.30;4.23;;;;;;;-141.97;72.06;47749.72;5014057;28;20225;-91
2023/06/29 04:34:41;;;;;;;5.50;4.03;;;;;;;-141.97;71.86;47667.06;4996332;28;20225;-91
2023/06/29 04:37:07;;;;;;;5.53;4.47;;;;;;;-141.97;72.94;47586.34;5014678;28;20175;-91
2023/06/29 04:39:32;;;;;;;7.83;4.57;;;;;;;-141.97;73.33;47559.44;5016021;28;20169;-90
2023/06/29 04:42:02;;;;;;;7.37;4.90;;;;;;;-141.97;72.72;47380.69;5000595;28;20627;-90
2023/06/29 04:44:32;;;;;;;5.77;4.43;;;;;;;-141.97;72.67;47711.28;5006866;28;20190;-90
2023/06/29 04:47:01;;;;;;;6.07;4.70;;;;;;;-141.97;72.90;47434.50;5035767;28;20212;-91
2023/06/29 04:49:31;;;;;;;7.03;4.93;;;;;;;-141.97;72.74;47534.44;5035944;28;20170;-90
2023/06/29 04:51:59;;;;;;;8.23;4.57;;;;;;;-141.97;71.95;47549.84;5036952;28;20221;-91
2023/06/29 04:54:25;;;;;;;7.80;4.97;;;;;;;-141.97;72.14;47595.97;5035340;28;20174;-91
2023/06/29 04:56:50;;;;;;;7.43;5.23;;;;;;;-141.97;72.91;47492.16;5036406;28;20205;-91
2023/06/29 04:59:16;;;;;;;6.03;5.30;;;;;;;-141.97;72.69;47367.25;5036434;28;20272;-91
2023/06/29 05:01:41;;;;;;;9.40;5.13;;;;;;;-141.97;72.79;47557.53;5036872;28;20257;-91
2023/06/29 05:04:07;;;;;;;6.80;5.10;;;;;;;-141.97;72.56;47434.50;5037023;28;20277;-91
2023/06/29 05:06:32;;;;;;;6.93;5.30;;;;;;;-141.97;72.29;47411.44;5037038;28;20210;-90
2023/06/29 05:08:57;;;;;;;7.70;5.53;;;;;;;-141.97;72.73;47630.56;5037507;28;20175;-91
2023/06/29 05:11:23;;;;;;;8.47;5.27;;;;;;;-141.97;72.38;47799.72;5051839;28;20182;-91
2023/06/29 05:13:48;;;;;;;8.77;5.60;;;;;;;-141.97;72.99;47394.16;5035876;28;20200;-90
2023/06/29 05:16:14;;;;;;;7.63;5.40;;;;;;;-141.97;72.64;47532.53;5036776;28;20649;-90
2023/06/29 05:18:40;;;;;;;7.70;5.90;;;;;;;-141.97;73.21;47615.19;5034874;28;20193;-90
2023/06/29 05:21:05;;;;;;;9.73;5.37;;;;;;;-141.97;72.58;47617.09;5037543;28;20202;-90
2023/06/29 05:23:31;;;;;;;7.67;5.57;;;;;;;-141.97;72.78;47669.00;5036699;28;20670;-90
2023/06/29 05:25:56;;;;;;;6.87;5.27;;;;;;;-141.97;73.01;47419.13;5035373;28;20538;-89
2023/06/29 05:28:22;;;;;;;7.07;5.30;;;;;;;-141.97;73.25;47369.16;5018904;28;20360;-90
2023/06/29 05:30:47;;;;;;;7.70;5.60;;;;;;;-141.97;72.88;47609.41;5036886;28;20162;-89
2023/06/29 05:33:13;;;;;;;7.73;5.63;;;;;;;-141.97;72.33;47669.00;5036620;28;20170;-90
2023/06/29 05:35:38;;;;;;;7.37;5.60;;;;;;;-141.97;72.02;47603.66;5036689;28;20178;-89
2023/06/29 05:38:38;;;;;;;6.93;5.50;;;;;;;-141.97;70.78;47453.72;5022370;28;20726;-91
2023/06/29 05:41:06;;;;;;;8.23;5.43;;;;;;;-141.97;70.31;47609.41;5013564;28;20656;-92
2023/06/29 05:43:31;;;;;;;9.43;5.43;;;;;;;-141.97;68.69;47346.09;4996499;28;20175;-89
2023/06/29 05:45:56;;;;;;;7.20;5.40;;;;;;;-141.97;68.17;47705.53;4995977;28;20266;-90
2023/06/29 05:48:22;;;;;;;6.93;5.37;;;;;;;-141.97;68.09;47669.00;4995725;28;20234;-90
2023/06/29 05:50:47;;;;;;;8.03;5.27;;;;;;;-141.97;68.02;47669.00;4994717;28;20234;-89
2023/06/29 05:53:12;;;;;;;8.30;5.50;;;;;;;-141.97;67.96;47509.47;4995767;28;20182;-90
2023/06/29 05:55:38;;;;;;;7.47;4.57;;;;;;;-141.97;66.83;47707.44;4996727;28;20195;-91
2023/06/29 05:58:03;;;;;;;6.53;5.33;;;;;;;-141.97;67.44;47663.22;4996840;28;20249;-90
2023/06/29 06:00:29;;;;;;;12.40;5.33;;;;;;;-141.97;66.30;47394.16;5012080;28;20206;-90
2023/06/29 06:02:54;;;;;;;6.27;4.90;;;;;;;-141.97;65.87;47603.66;4995312;28;20712;-90
2023/06/29 06:05:20;;;;;;;10.20;5.23;;;;;;;-141.97;65.75;47376.84;4995309;28;20172;-90
2023/06/29 06:07:45;;;;;;;8.27;5.57;;;;;;;-141.97;66.17;47496.00;4997246;28;20704;-88
2023/06/29 06:10:11;;;;;;;8.33;6.10;;;;;;;-141.97;65.67;47588.28;5011670;28;20219;-91
2023/06/29 06:12:36;;;;;;;7.10;5.30;;;;;;;-141.97;64.16;47569.06;4995827;28;20175;-90
2023/06/29 06:15:01;;;;;;;8.40;5.70;;;;;;;-141.97;64.17;47438.34;4995525;28;20199;-90
2023/06/29 06:17:27;;;;;;;7.40;5.20;;;;;;;-141.97;64.30;47542.16;5010622;28;20167;-90
2023/06/29 06:19:54;;;;;;;6.07;5.33;;;;;;;-141.97;64.78;47576.75;4994997;28;20584;-91
2023/06/29 06:22:20;;;;;;;9.93;5.73;;;;;;;-141.97;63.86;47588.28;4996672;28;20160;-91
2023/06/29 06:24:45;;;;;;;6.93;5.67;;;;;;;-141.97;63.38;47720.91;4997590;28;20189;-90
2023/06/29 06:27:11;;;;;;;7.37;5.37;;;;;;;-141.97;63.56;47653.63;5009949;28;20219;-90
2023/06/29 06:29:36;;;;;;;7.57;5.60;;;;;;;-141.97;63.30;47430.66;5018805;28;20152;-89
2023/06/29 06:32:02;;;;;;;8.43;5.93;;;;;;;-141.97;62.78;47597.88;5014965;28;20171;-91
2023/06/29 06:34:30;;;;;;;6.37;5.40;;;;;;;-141.97;62.32;47496.00;4996829;28;20171;-88
2023/06/29 06:36:57;;;;;;;8.43;5.73;;;;;;;-141.97;61.57;47399.91;4997622;28;20206;-90
2023/06/29 06:39:23;;;;;;;7.60;4.73;;;;;;;-141.97;61.62;47711.28;5000012;28;20228;-89
2023/06/29 06:41:49;;;;;;;7.33;5.53;;;;;;;-141.97;61.77;47330.72;5012647;28;20175;-90
2023/06/29 06:44:14;;;;;;;7.90;5.40;;;;;;;-141.97;62.05;47338.41;4995039;28;20547;-90
2023/06/29 06:46:40;;;;;;;6.90;5.57;;;;;;;-141.97;61.22;47722.81;4994500;28;20194;-90
2023/06/29 06:49:05;;;;;;;9.40;5.90;;;;;;;-141.97;59.69;47417.22;4995711;28;20183;-90
2023/06/29 06:51:31;;;;;;;6.63;5.20;;;;;;;-141.97;59.21;47726.66;4994586;28;20230;-90
2023/06/29 06:53:56;;;;;;;7.43;5.80;;;;;;;-141.97;59.49;47565.22;4996306;28;20175;-91
2023/06/29 06:56:24;;;;;;;6.60;5.30;;;;;;;-141.97;58.47;47661.31;5011686;28;20203;-90
2023/06/29 06:58:50;;;;;;;6.47;5.50;;;;;;;-141.97;59.17;47747.81;5011422;28;20276;-90
2023/06/29 07:01:17;;;;;;;6.00;5.40;;;;;;;-141.97;59.18;47492.16;5016846;28;20194;-88
2023/06/29 07:03:42;;;;;;;7.83;5.87;;;;;;;-141.97;58.59;47763.19;5020463;28;20174;-90
2023/06/29 07:06:08;;;;;;;5.93;5.23;;;;;;;-141.97;58.99;47380.69;5002838;28;20171;-91
2023/06/29 07:08:35;;;;;;;8.13;5.70;;;;;;;-141.97;57.74;47526.75;5014965;28;20189;-91
2023/06/29 07:11:01;;;;;;;7.87;5.70;;;;;;;-141.97;58.69;47561.38;4999008;28;20628;-90
2023/06/29 07:13:26;;;;;;;6.77;5.30;;;;;;;-141.97;57.29;47555.59;5002314;28;20178;-90
2023/06/29 07:15:52;;;;;;;6.80;5.93;;;;;;;-141.97;57.51;47601.72;5001673;28;20214;-90
2023/06/29 07:18:17;;;;;;;7.07;5.60;;;;;;;-141.97;56.90;47365.31;5005139;28;20176;-90
2023/06/29 07:20:43;;;;;;;8.23;5.40;;;;;;;-141.97;56.85;47728.59;5003278;28;20718;-88
2023/06/29 07:23:10;;;;;;;5.97;5.20;;;;;;;-141.97;56.43;47626.72;5005027;28;20179;-90
2023/06/29 07:25:37;;;;;;;6.43;5.63;;;;;;;-141.97;56.52;47651.69;5002521;28;20182;-90
2023/06/29 07:28:02;;;;;;;6.87;5.40;;;;;;;-141.97;55.26;47367.25;5022933;28;20151;-89
2023/06/29 07:30:28;;;;;;;8.30;5.70;;;;;;;-141.97;53.93;47380.69;5010429;28;20210;-93
2023/06/29 07:32:53;;;;;;;5.77;5.00;;;;;;;-141.97;54.18;47669.00;5012944;28;20179;-91
2023/06/29 07:35:19;;;;;;;5.93;5.33;;;;;;;-141.97;53.98;47421.06;5003485;28;20199;-91
2023/06/29 07:37:44;;;;;;;7.13;6.00;;;;;;;-141.97;53.50;47517.16;5003163;28;20213;-91
2023/06/29 07:40:10;;;;;;;8.87;5.50;;;;;;;-141.97;53.71;47476.78;5004209;28;20593;-90
2023/06/29 07:42:35;;;;;;;6.03;5.33;;;;;;;-141.97;52.45;47326.88;5004040;28;20179;-91
2023/06/29 07:45:01;;;;;;;8.80;5.63;;;;;;;-141.97;53.88;47421.06;5001972;28;20239;-90
2023/06/29 07:47:26;;;;;;;6.77;5.30;;;;;;;-141.97;52.18;47694.00;5004233;28;20180;-90
2023/06/29 07:49:52;;;;;;;6.50;5.47;;;;;;;-141.97;51.90;47382.63;5002087;28;20167;-91
2023/06/29 07:52:17;;;;;;;6.07;5.20;;;;;;;-141.97;51.10;47488.31;5015683;28;20227;-91
2023/06/29 07:54:43;;;;;;;7.27;5.80;;;;;;;-141.97;51.74;47273.06;4998570;28;20175;-91
2023/06/29 07:57:08;;;;;;;7.07;5.80;;;;;;;-141.97;50.61;47344.19;4995405;28;20167;-90
2023/06/29 07:59:34;;;;;;;8.03;5.57;;;;;;;-141.97;52.00;47657.47;4996172;28;20318;-91
2023/06/29 08:01:59;;;;;;;7.97;5.43;;;;;;;-141.97;51.48;47415.28;4996827;28;20179;-90
2023/06/29 08:04:25;;;;;;;7.47;5.83;;;;;;;-141.97;50.38;47697.84;4996589;28;20171;-89
2023/06/29 08:06:53;;;;;;;6.57;5.50;;;;;;;-141.97;49.84;47380.69;4999470;28;20168;-90
2023/06/29 08:09:19;;;;;;;6.10;5.33;;;;;;;-141.97;49.31;47261.53;5000499;28;20222;-89
2023/06/29 08:11:44;;;;;;;5.20;4.70;;;;;;;-141.97;50.38;47453.72;5002191;28;20163;-91
2023/06/29 08:14:10;;;;;;;6.03;4.70;;;;;;;-141.97;50.05;47367.25;5009753;28;20178;-89
2023/06/29 08:16:35;;;;;;;6.57;5.40;;;;;;;-141.97;49.90;47592.13;5011285;28;20199;-90
2023/06/29 08:19:01;;;;;;;8.43;4.83;;;;;;;-141.97;49.79;47680.53;5010040;28;20182;-90
2023/06/29 08:21:26;;;;;;;6.00;5.40;;;;;;;-141.97;48.82;47386.47;5027724;28;20167;-90
2023/06/29 08:23:52;;;;;;;5.80;5.20;;;;;;;-141.97;49.06;47663.22;5003281;28;20220;-90
2023/06/29 08:26:17;;;;;;;7.07;4.70;;;;;;;-141.97;47.74;47522.91;5005208;28;20550;-91
2023/06/29 08:28:43;;;;;;;7.17;5.10;;;;;;;-141.97;48.76;47338.41;5004910;28;20178;-89
2023/06/29 08:31:09;;;;;;;5.67;5.07;;;;;;;-141.97;49.46;47363.41;5019144;28;20174;-92
2023/06/29 08:33:34;;;;;;;6.60;4.60;;;;;;;-141.97;48.71;47238.47;5020331;28;20182;-91
2023/06/29 08:36:00;;;;;;;5.70;5.03;;;;;;;-141.97;48.59;47265.38;5001964;28;20202;-92
2023/06/29 08:38:25;;;;;;;7.00;4.80;;;;;;;-141.97;49.25;47315.34;5020878;28;20171;-91
2023/06/29 08:40:51;;;;;;;5.10;4.60;;;;;;;-141.97;49.03;47647.84;5007576;28;20194;-92
2023/06/29 08:43:17;;;;;;;6.17;4.80;;;;;;;-141.97;48.43;47542.16;5002480;28;20174;-91
2023/06/29 08:45:44;;;;;;;6.33;4.80;;;;;;;-141.97;48.64;47549.84;5002367;28;20210;-90
2023/06/29 08:48:12;;;;;;;5.70;5.03;;;;;;;-141.97;48.27;47299.97;5002901;28;20171;-92
2023/06/29 08:50:43;;;;;;;6.67;5.03;;;;;;;-141.97;48.13;47734.34;5010304;28;20203;-91
2023/06/29 08:53:09;;;;;;;8.03;5.33;;;;;;;-141.97;47.61;47442.19;5023567;28;20167;-91
2023/06/29 08:55:35;;;;;;;6.70;5.17;;;;;;;-141.97;47.66;47365.31;5021085;28;20230;-88
2023/06/29 08:58:01;;;;;;;5.53;5.00;;;;;;;-141.97;46.90;47684.38;5009930;28;20156;-90
2023/06/29 09:00:30;;;;;;;5.30;4.63;;;;;;;-141.97;45.50;47415.28;5012877;28;20163;-90
2023/06/29 09:02:56;;;;;;;6.40;4.63;;;;;;;-141.97;46.48;47492.16;5007732;28;20183;-91
2023/06/29 09:05:22;;;;;;;5.57;4.97;;;;;;;-141.97;46.27;47424.91;5004008;28;20163;-91
2023/06/29 09:07:50;;;;;;;7.57;6.20;;;;;;;-141.97;46.62;47661.31;5003511;28;20164;-90
2023/06/29 09:10:15;;;;;;;5.60;5.00;;;;;;;-141.97;45.17;47342.25;5002650;28;20166;-92
2023/06/29 09:12:41;;;;;;;9.50;6.63;;;;;;;-141.97;44.42;47253.84;5021028;28;20179;-90
2023/06/29 09:15:11;;;;;;;6.55;5.32;;;;;;;-141.97;44.21;47695.91;5001861;28;20205;-91
2023/06/29 09:17:36;;;;;;;6.90;6.15;;;;;;;-141.97;43.21;47449.88;5000885;28;20606;-91
2023/06/29 09:20:10;;;;;;;7.15;5.30;;;;;;;-141.97;42.97;47463.34;5017079;28;20177;-92
2023/06/29 09:22:39;;;;;;;6.60;5.05;;;;;;;-141.97;42.66;47265.38;5000705;28;20177;-90
2023/06/29 09:25:06;;;;;;;6.68;5.45;;;;;;;-141.97;42.57;47380.69;5015975;28;20647;-91
2023/06/29 09:27:33;;;;;;;5.10;4.60;;;;;;;-141.97;43.64;47455.66;5015851;28;20169;-91
2023/06/29 09:30:00;;;;;;;5.72;4.72;;;;;;;-141.97;43.53;47524.84;5017659;28;20184;-91
2023/06/29 09:32:28;;;;;;;7.07;4.72;;;;;;;-141.97;43.35;47484.47;5001897;28;20166;-91
2023/06/29 09:34:54;;;;;;;5.40;4.25;;;;;;;-141.97;43.19;47530.59;5022832;28;20440;-90
2023/06/29 09:37:20;;;;;;;7.80;4.97;;;;;;;-141.97;43.06;47338.41;5008615;28;20183;-90
2023/06/29 09:40:12;;;;;;;7.47;5.60;;;;;;;-141.97;42.97;47432.59;5005461;28;20177;-90
2023/06/29 09:42:38;;;;;;;7.45;4.20;;;;;;;-141.97;41.58;47446.03;5006325;28;20256;-90
2023/06/29 09:45:14;;;;;;;4.65;4.25;;;;;;;-141.97;41.38;47296.13;5004577;28;20248;-90
2023/06/29 09:47:48;;;;;;;4.43;4.03;;;;;;;-141.97;42.17;47522.91;5001637;28;20552;-91
2023/06/29 09:50:23;;;;;;;5.10;3.97;;;;;;;-141.97;41.15;47394.16;5000391;28;20199;-92
2023/06/29 09:52:51;;;;;;;7.00;4.38;;;;;;;-141.97;42.10;47682.47;4998592;28;20336;-90
2023/06/29 09:55:17;;;;;;;5.72;4.40;;;;;;;-141.97;41.65;47503.69;4998045;28;20233;-91
2023/06/29 09:57:45;;;;;;;6.55;4.60;;;;;;;-141.97;41.60;47275.00;4998961;28;20721;-90
2023/06/29 10:00:12;;;;;;;5.20;4.70;;;;;;;-141.97;41.17;47670.91;4999246;28;20639;-90
2023/06/29 10:02:42;;;;;;;5.30;4.25;;;;;;;-141.97;40.71;47376.84;5000725;28;20173;-91
2023/06/29 10:05:10;;;;;;;4.45;3.80;;;;;;;-141.97;40.05;47280.75;5004783;28;20191;-90
2023/06/29 10:07:37;;;;;;;7.93;4.50;;;;;;;-141.97;41.06;47509.47;5000618;28;20172;-90
2023/06/29 10:10:05;;;;;;;4.45;4.05;;;;;;;-141.97;39.58;47519.06;5001812;28;20171;-91
2023/06/29 10:12:32;;;;;;;4.47;4.07;;;;;;;-141.97;40.26;47586.34;4984391;28;20165;-91
2023/06/29 10:15:08;;;;;;;6.03;4.20;;;;;;;-141.97;39.70;47371.09;5003229;28;20304;-89
2023/06/29 10:17:44;;;;;;;4.10;3.70;;;;;;;-141.97;40.16;47505.63;5001737;28;20264;-90
2023/06/29 10:20:12;;;;;;;6.07;4.10;;;;;;;-141.97;40.89;47394.16;4982475;28;20173;-89
2023/06/29 10:22:39;;;;;;;4.78;3.90;;;;;;;-141.97;39.82;47699.75;5001251;28;20180;-91
2023/06/29 10:25:11;;;;;;;5.07;4.20;;;;;;;-141.97;40.28;47469.09;4999201;28;20186;-90
2023/06/29 10:27:39;;;;;;;4.97;3.92;;;;;;;-141.97;39.35;47317.28;4998745;28;20171;-90
2023/06/29 10:30:05;;;;;;;5.03;4.10;;;;;;;-141.97;39.44;47298.06;4995408;28;20233;-91
2023/06/29 10:32:35;;;;;;;6.70;4.20;;;;;;;-141.97;40.21;47453.72;4996558;28;20641;-92
2023/06/29 10:35:10;;;;;;;4.35;3.95;;;;;;;-141.97;39.76;47480.63;4995535;28;20199;-89
2023/06/29 10:37:36;;;;;;;5.38;4.13;;;;;;;-141.97;39.27;47494.09;4996269;28;20576;-90
2023/06/29 10:40:07;;;;;;;4.10;3.70;;;;;;;-141.97;39.39;47501.78;4996806;28;20195;-89
2023/06/29 10:42:38;;;;;;;4.32;3.88;;;;;;;-141.97;40.00;47486.41;5011382;28;20214;-88
2023/06/29 10:45:16;;;;;;;4.45;3.90;;;;;;;-141.97;41.36;47511.38;4995708;28;20244;-89
2023/06/29 10:47:42;;;;;;;4.25;3.85;;;;;;;-141.97;40.10;47453.72;4996168;28;20183;-90
2023/06/29 10:50:10;;;;;;;4.07;3.67;;;;;;;-141.97;39.60;47515.22;4995898;28;20176;-90
2023/06/29 10:52:40;;;;;;;4.88;4.03;;;;;;;-141.97;40.00;47390.31;4998435;28;20234;-89
2023/06/29 10:55:12;;;;;;;6.50;3.58;;;;;;;-141.97;40.38;47482.56;5000508;28;20603;-90
2023/06/29 10:57:38;;;;;;;4.53;3.60;;;;;;;-141.97;39.95;47499.84;5002963;28;20251;-90
2023/06/29 11:00:04;;;;;;;4.20;3.53;;;;;;;-141.97;39.40;47490.25;4997907;28;20203;-91
2023/06/29 11:02:30;;;;;;;4.00;3.55;;;;;;;-141.97;39.93;47530.59;4996454;28;20178;-91
2023/06/29 11:04:56;;;;;;;5.05;3.90;;;;;;;-141.97;39.39;47296.13;4994869;28;20227;-90
2023/06/29 11:07:21;;;;;;;7.03;4.20;;;;;;;-141.97;39.16;47484.47;5002511;28;20189;-89
2023/06/29 11:09:47;;;;;;;3.92;3.63;;;;;;;-141.97;38.48;47655.53;4999980;28;20174;-90
2023/06/29 11:12:12;;;;;;;5.03;3.72;;;;;;;-141.97;38.41;47736.28;4997716;28;20174;-90
2023/06/29 11:14:38;;;;;;;4.13;3.65;;;;;;;-141.97;38.70;47684.38;5009080;28;20174;-89